O John Clark Restricted Landing Area [CLOSED]

Jump to: basic info | weather | comments

Related pages: nearby airports | nearby navaids | notams | map

Basic information (top)

Codes: 7IL2
Location: lon 42.368401, lat -87.991699, elev 790 ft / 241 m msl
Status: closed

Weather (top)

Current conditions for Waukegan Regional Airport 6nm (12km) ENE (rec'd 2015/02/26 23:55Z):

KUGN 262355Z 30004KT 10SM CLR M12/M21 A3033 RMK AO2 SLP295 T11221211 11083 21122 53019

Airport forecast for Kenosha Regional Airport 14nm (26km) NNE (rec'd 2015/02/26 00:39Z):

TAF KENW 262337Z 2700/2724 31005KT P6SM SKC 
     FM271700 27007KT P6SM FEW040

Latest comments (top)

No comments yet for O John Clark Restricted Landing Area

More... (top)

See also NOTAMs and nearby airports and navaids, or visit the O John Clark Restricted Landing Area page at the main OurAirports website..